Flight Track Log - Related Links

Times and Time Zones

All times are in EDT time to prevent confusion due to time zone crossing. See the FLG4115 flight status page for this flight to view local times or setup timezone preferences in your user account.

Time Position Orientation Groundspeed Altitude Reporting Facility
EDT Latitude Longitude Course Direction KTS MPH feet Rate Location/Type
Sun 09:46:02 AM 38.9833 -77.5500 311° West 209 241 3,900  Level Potomac TRACON
Sun 09:47:00 AM 39.1887 -77.5167 North  Level FlightAware Approximate
Sun 09:47:03 AM 39.0500 -77.5833 339° North 250 288 6,500  Level Potomac TRACON
Sun 09:48:00 AM 39.2774 -77.5373 344° North  Level FlightAware Approximate
Sun 09:49:00 AM 39.3642 -77.5699 344° North  Level FlightAware Approximate
Sun 09:49:28 AM 39.1933 -77.6806 332° Northwest 254 292 11,100  Level Washington Center
Sun 09:50:00 AM 39.4509 -77.5871 288° West  Level FlightAware Approximate
Sun 09:50:28 AM 39.2417 -77.7783 303° West 285 328 13,100  Level Washington Center
Sun 09:51:28 AM 39.3283 -77.8186 340° North 311 358 14,900 1,429 Climbing Washington Center
Sun 09:53:16 AM 39.5153 -77.8572 351° North 351 404 17,100 1,214 Climbing Cleveland Center
Sun 09:54:16 AM 39.5742 -77.9653 305° West 353 406 18,300 900 Climbing Cleveland Center
Sun 09:55:16 AM 39.6106 -78.0933 290° West 347 399 18,900 900 Climbing Cleveland Center
Sun 09:56:16 AM 39.6486 -78.2214 291° West 365 420 20,100 1,200 Climbing Cleveland Center
Sun 09:57:16 AM 39.6867 -78.3494 291° West 383 441 21,300 1,200 Climbing Cleveland Center
Sun 09:58:16 AM 39.7244 -78.4778 291° West 383 441 22,500 1,200 Climbing Cleveland Center
Sun 09:59:16 AM 39.7622 -78.6036 291° West 383 441 23,700 1,300 Climbing Cleveland Center
Sun 10:00:16 AM 39.7981 -78.7431 289° West 378 435 25,100 1,150 Climbing Cleveland Center
Sun 10:01:16 AM 39.8333 -78.8664 290° West 378 435 26,000 450 Climbing Cleveland Center
Sun 10:02:16 AM 39.8725 -78.9872 293° West 378 435 26,000  Level Cleveland Center
Sun 10:03:16 AM 39.9142 -79.1350 290° West 392 451 26,000  Level Cleveland Center
Sun 10:04:16 AM 39.9533 -79.2750 290° West 402 463 26,000  Level Cleveland Center
Sun 10:05:16 AM 40.0006 -79.4069 295° West 407 468 26,000  Level Cleveland Center
Sun 10:06:16 AM 40.0644 -79.5278 305° West 401 461 26,000  Level Cleveland Center
Sun 10:07:16 AM 40.1258 -79.6492 304° West 401 461 26,000  Level Cleveland Center
Sun 10:08:16 AM 40.1872 -79.7706 304° West 406 467 26,000  Level Cleveland Center
Sun 10:09:16 AM 40.2486 -79.8922 303° West 406 467 26,000  Level Cleveland Center
Sun 10:10:16 AM 40.3097 -80.0142 303° West 406 467 26,000  Level Cleveland Center
Sun 10:11:16 AM 40.3686 -80.1361 302° West 406 467 26,000  Level Cleveland Center
Sun 10:12:16 AM 40.4314 -80.2611 303° West 411 473 26,000  Level Cleveland Center
Sun 10:13:16 AM 40.4964 -80.3811 305° West 411 473 26,000  Level Cleveland Center
Sun 10:14:16 AM 40.5592 -80.5039 304° West 411 473 26,000  Level Cleveland Center
Sun 10:15:16 AM 40.6111 -80.6186 301° West 411 473 26,000  Level Cleveland Center
Sun 10:16:16 AM 40.6778 -80.7475 304° West 404 465 26,000  Level Cleveland Center
Sun 10:17:16 AM 40.7361 -80.8625 304° West 386 444 26,000  Level Cleveland Center
Sun 10:18:16 AM 40.7919 -80.9781 303° West 381 438 26,000  Level Cleveland Center
Sun 10:19:16 AM 40.8456 -81.0964 301° West 381 438 26,000  Level Cleveland Center
Sun 10:20:16 AM 40.9056 -81.2150 304° West 386 444 26,000  Level Cleveland Center
Sun 10:21:16 AM 40.9653 -81.3419 302° West 391 450 26,000  Level Cleveland Center
Sun 10:22:16 AM 41.0247 -81.4639 303° West 396 456 26,000  Level Cleveland Center
Sun 10:23:16 AM 41.0864 -81.5886 303° West 401 461 26,000  Level Cleveland Center
Sun 10:24:16 AM 41.1394 -81.6942 304° West 401 461 26,000 -300 Level Cleveland Center
Sun 10:25:16 AM 41.2067 -81.8361 302° West 396 456 25,400 -950 Descending Cleveland Center
Sun 10:26:16 AM 41.2597 -81.9450 303° West 401 461 24,100 -750 Descending Cleveland Center
Sun 10:27:16 AM 41.3167 -82.0678 302° West 401 461 23,900 -1,150 Descending Cleveland Center
Sun 10:28:16 AM 41.3794 -82.2019 302° West 396 456 21,800 -2,000 Descending Cleveland Center
Sun 10:29:16 AM 41.4467 -82.3117 309° West 390 449 19,900 -1,850 Descending Cleveland Center
Sun 10:30:16 AM 41.5117 -82.4161 310° West 379 436 18,100 -1,500 Descending Cleveland Center
Sun 10:31:16 AM 41.5744 -82.5233 308° West 372 428 16,900 -1,486 Descending Cleveland Center
Sun 10:32:01 AM 41.6169 -82.5969 308° West 357 411 15,500 -2,100 Descending Cleveland Center
Sun 10:32:16 AM 41.6333 -82.6250 308° West 360 414 14,800 -2,066 Descending Cleveland Center
Sun 10:33:02 AM 41.6839 -82.7103 308° West 352 405 13,400 -1,514 Descending Cleveland Center
Sun 10:34:03 AM 41.7467 -82.8042 312° West 337 388 12,100 -639 Descending Cleveland Center
Sun 10:35:04 AM 41.8097 -82.8786 319° Northwest 275 316 12,100  Level Cleveland Center
Sun 10:36:06 AM 41.8708 -82.9533 318° Northwest 279 321 12,100  Level Cleveland Center
Sun 10:37:07 AM 41.9236 -83.0194 317° Northwest 255 293 12,100  Level Cleveland Center
Sun 10:38:16 AM 41.9786 -83.0831 319° Northwest 252 290 12,100 -295 Level Cleveland Center
Sun 10:39:09 AM 42.0233 -83.1381 318° Northwest 233 268 11,500 -500 Descending Cleveland Center
Sun 10:40:16 AM 42.0739 -83.2017 317° Northwest 235 270 11,100 -195 Descending Cleveland Center
Sun 10:41:12 AM 42.1314 -83.2403 334° Northwest 239 275 11,100 -73 Level Cleveland Center
Sun 10:41:38 AM 42.1569 -83.2375 North 240 276 11,000 -652 Descending FAA TRACON SMA TRACON (SMA)
Sun 10:41:58 AM 42.1806 -83.2233 24° Northeast 247 284 10,600 -1,200 Descending FAA TRACON SMA TRACON (SMA)
Sun 10:42:18 AM 42.1972 -83.2100 31° Northeast 238 274 10,200 -1,200 Descending FAA TRACON SMA TRACON (SMA)
Sun 10:42:38 AM 42.2150 -83.1969 29° Northeast 235 270 9,800 -1,200 Descending FAA TRACON SMA TRACON (SMA)
Sun 10:42:58 AM 42.2367 -83.1803 30° Northeast 234 269 9,400 -1,050 Descending FAA TRACON SMA TRACON (SMA)
Sun 10:43:18 AM 42.2536 -83.1683 28° Northeast 225 259 9,100 -1,050 Descending FAA TRACON SMA TRACON (SMA)
Sun 10:43:38 AM 42.2742 -83.1539 27° Northeast 216 249 8,700 -1,050 Descending FAA TRACON SMA TRACON (SMA)
Sun 10:43:58 AM 42.2892 -83.1436 27° Northeast 195 224 8,400 -900 Descending FAA TRACON SMA TRACON (SMA)
Sun 10:44:18 AM 42.3039 -83.1336 27° Northeast 192 221 8,100 -1,050 Descending FAA TRACON SMA TRACON (SMA)
Sun 10:44:38 AM 42.3225 -83.1211 26° Northeast 193 222 7,700 -1,050 Descending FAA TRACON SMA TRACON (SMA)
Sun 10:44:58 AM 42.3375 -83.1114 26° Northeast 194 223 7,400 -900 Descending FAA TRACON SMA TRACON (SMA)
Sun 10:45:18 AM 42.3522 -83.1014 27° Northeast 192 221 7,100 -1,050 Descending FAA TRACON SMA TRACON (SMA)
Sun 10:45:38 AM 42.3706 -83.0889 27° Northeast 192 221 6,700 -1,050 Descending FAA TRACON SMA TRACON (SMA)
Sun 10:45:58 AM 42.3858 -83.0828 16° North 187 215 6,400 -900 Descending FAA TRACON SMA TRACON (SMA)
Sun 10:46:18 AM 42.3997 -83.0936 330° Northwest 195 224 6,100 -1,050 Descending FAA TRACON SMA TRACON (SMA)
Sun 10:46:38 AM 42.4139 -83.1142 313° West 194 223 5,700 -1,171 Descending FAA TRACON SMA TRACON (SMA)
Sun 10:46:59 AM 42.4267 -83.1344 310° West 199 229 5,300 -878 Descending FAA TRACON SMA TRACON (SMA)
Sun 10:47:19 AM 42.4306 -83.1558 284° West 200 230 5,100 -300 Descending FAA TRACON SMA TRACON (SMA)
Sun 10:47:39 AM 42.4211 -83.1775 239° Southwest 195 224 5,100  Level FAA TRACON SMA TRACON (SMA)
Sun 10:47:58 AM 42.4103 -83.1936 228° Southwest 196 226 5,100 -154 Level FAA TRACON SMA TRACON (SMA)
Sun 10:48:18 AM 42.3936 -83.2069 211° Southwest 194 223 5,000 -900 Descending FAA TRACON SMA TRACON (SMA)
Sun 10:48:38 AM 42.3772 -83.2183 207° Southwest 190 219 4,500 -1,200 Descending FAA TRACON SMA TRACON (SMA)
Sun 10:48:58 AM 42.3633 -83.2283 208° Southwest 186 214 4,200 -1,050 Descending FAA TRACON SMA TRACON (SMA)
Sun 10:49:18 AM 42.3469 -83.2403 208° Southwest 181 208 3,800 -1,200 Descending FAA TRACON SMA TRACON (SMA)

Login

Don't have an account? Register now (free) for customized features, flight alerts, and more!